sensor_id;sensor_type;location;lat;lon;timestamp;pressure;altitude;pressure_sealevel;temperature;humidity
59443;BME280;45247;47.466;19.004;2022-10-16T00:01:08;100381.84;;;13.41;100.00
59443;BME280;45247;47.466;19.004;2022-10-16T00:03:38;100376.59;;;13.40;100.00
59443;BME280;45247;47.466;19.004;2022-10-16T00:06:08;100374.81;;;13.40;100.00
59443;BME280;45247;47.466;19.004;2022-10-16T00:08:37;100375.69;;;13.41;100.00
59443;BME280;45247;47.466;19.004;2022-10-16T00:11:07;100375.75;;;13.39;100.00
59443;BME280;45247;47.466;19.004;2022-10-16T00:13:37;100377.56;;;13.39;100.00
59443;BME280;45247;47.466;19.004;2022-10-16T00:16:06;100371.59;;;13.35;100.00
59443;BME280;45247;47.466;19.004;2022-10-16T00:18:35;100374.34;;;13.34;100.00
59443;BME280;45247;47.466;19.004;2022-10-16T00:21:04;100377.97;;;13.33;100.00
59443;BME280;45247;47.466;19.004;2022-10-16T00:23:35;100374.94;;;13.24;100.00
59443;BME280;45247;47.466;19.004;2022-10-16T00:26:05;100375.91;;;13.23;100.00
59443;BME280;45247;47.466;19.004;2022-10-16T00:28:34;100384.19;;;13.17;100.00
59443;BME280;45247;47.466;19.004;2022-10-16T00:31:03;100391.56;;;13.12;100.00
59443;BME280;45247;47.466;19.004;2022-10-16T00:33:32;100389.03;;;13.11;100.00
59443;BME280;45247;47.466;19.004;2022-10-16T00:36:00;100396.22;;;13.09;100.00
59443;BME280;45247;47.466;19.004;2022-10-16T00:38:28;100393.66;;;13.07;100.00
59443;BME280;45247;47.466;19.004;2022-10-16T00:40:58;100398.97;;;13.07;100.00
59443;BME280;45247;47.466;19.004;2022-10-16T00:43:38;100393.13;;;13.02;100.00
59443;BME280;45247;47.466;19.004;2022-10-16T00:46:15;100395.84;;;13.00;100.00
59443;BME280;45247;47.466;19.004;2022-10-16T00:48:48;100396.97;;;12.96;100.00
59443;BME280;45247;47.466;19.004;2022-10-16T00:51:19;100394.59;;;12.92;100.00
59443;BME280;45247;47.466;19.004;2022-10-16T00:53:50;100396.41;;;12.91;100.00
59443;BME280;45247;47.466;19.004;2022-10-16T00:56:19;100398.38;;;12.88;100.00
59443;BME280;45247;47.466;19.004;2022-10-16T00:58:47;100405.09;;;12.79;100.00
59443;BME280;45247;47.466;19.004;2022-10-16T01:01:16;100408.19;;;12.71;100.00
59443;BME280;45247;47.466;19.004;2022-10-16T01:03:44;100415.41;;;12.69;100.00
59443;BME280;45247;47.466;19.004;2022-10-16T01:06:19;100414.72;;;12.66;100.00
59443;BME280;45247;47.466;19.004;2022-10-16T01:08:58;100416.63;;;12.64;100.00
59443;BME280;45247;47.466;19.004;2022-10-16T01:11:35;100415.66;;;12.50;100.00
59443;BME280;45247;47.466;19.004;2022-10-16T01:14:12;100411.09;;;12.38;100.00
59443;BME280;45247;47.466;19.004;2022-10-16T01:16:46;100416.03;;;12.28;100.00
59443;BME280;45247;47.466;19.004;2022-10-16T01:19:20;100420.09;;;12.20;100.00
59443;BME280;45247;47.466;19.004;2022-10-16T01:21:55;100419.66;;;12.12;100.00
59443;BME280;45247;47.466;19.004;2022-10-16T01:24:31;100434.38;;;12.01;100.00
59443;BME280;45247;47.466;19.004;2022-10-16T01:27:12;100434.13;;;11.90;100.00
59443;BME280;45247;47.466;19.004;2022-10-16T01:29:48;100435.56;;;11.80;100.00
59443;BME280;45247;47.466;19.004;2022-10-16T01:32:28;100425.50;;;11.71;100.00
59443;BME280;45247;47.466;19.004;2022-10-16T01:35:01;100425.16;;;11.61;100.00
59443;BME280;45247;47.466;19.004;2022-10-16T01:37:35;100423.78;;;11.54;100.00
59443;BME280;45247;47.466;19.004;2022-10-16T01:40:09;100430.44;;;11.45;100.00
59443;BME280;45247;47.466;19.004;2022-10-16T01:42:42;100428.06;;;11.41;100.00
59443;BME280;45247;47.466;19.004;2022-10-16T01:45:13;100426.75;;;11.32;100.00
59443;BME280;45247;47.466;19.004;2022-10-16T01:47:45;100434.16;;;11.25;100.00
59443;BME280;45247;47.466;19.004;2022-10-16T01:50:15;100438.00;;;11.20;100.00
59443;BME280;45247;47.466;19.004;2022-10-16T01:52:47;100445.31;;;11.15;100.00
59443;BME280;45247;47.466;19.004;2022-10-16T01:55:22;100437.88;;;11.06;100.00
59443;BME280;45247;47.466;19.004;2022-10-16T01:57:53;100448.06;;;10.96;100.00
59443;BME280;45247;47.466;19.004;2022-10-16T02:00:23;100455.22;;;10.94;100.00
59443;BME280;45247;47.466;19.004;2022-10-16T02:02:53;100458.84;;;10.91;100.00
59443;BME280;45247;47.466;19.004;2022-10-16T02:05:26;100454.84;;;10.84;100.00
59443;BME280;45247;47.466;19.004;2022-10-16T02:07:55;100454.44;;;10.74;100.00
59443;BME280;45247;47.466;19.004;2022-10-16T02:10:26;100462.09;;;10.63;100.00
59443;BME280;45247;47.466;19.004;2022-10-16T02:13:04;100453.69;;;10.55;100.00
59443;BME280;45247;47.466;19.004;2022-10-16T02:15:33;100456.44;;;10.53;100.00
59443;BME280;45247;47.466;19.004;2022-10-16T02:18:02;100451.28;;;10.50;100.00
59443;BME280;45247;47.466;19.004;2022-10-16T02:20:34;100452.66;;;10.58;100.00
59443;BME280;45247;47.466;19.004;2022-10-16T02:23:06;100448.88;;;10.46;100.00
59443;BME280;45247;47.466;19.004;2022-10-16T02:25:37;100450.91;;;10.41;100.00
59443;BME280;45247;47.466;19.004;2022-10-16T02:28:16;100446.94;;;10.32;100.00
59443;BME280;45247;47.466;19.004;2022-10-16T02:30:49;100460.91;;;10.34;100.00
59443;BME280;45247;47.466;19.004;2022-10-16T02:33:20;100463.78;;;10.30;100.00
59443;BME280;45247;47.466;19.004;2022-10-16T02:35:50;100458.75;;;10.23;100.00
59443;BME280;45247;47.466;19.004;2022-10-16T02:38:20;100462.16;;;10.08;100.00
59443;BME280;45247;47.466;19.004;2022-10-16T02:40:49;100474.63;;;10.04;100.00
59443;BME280;45247;47.466;19.004;2022-10-16T02:43:19;100471.63;;;9.93;100.00
59443;BME280;45247;47.466;19.004;2022-10-16T02:45:47;100472.94;;;9.85;100.00
59443;BME280;45247;47.466;19.004;2022-10-16T02:48:15;100456.84;;;9.72;100.00
59443;BME280;45247;47.466;19.004;2022-10-16T02:50:43;100465.63;;;9.72;100.00
59443;BME280;45247;47.466;19.004;2022-10-16T02:53:11;100472.19;;;9.64;100.00
59443;BME280;45247;47.466;19.004;2022-10-16T02:55:39;100483.72;;;9.61;100.00
59443;BME280;45247;47.466;19.004;2022-10-16T02:58:07;100483.06;;;9.56;100.00
59443;BME280;45247;47.466;19.004;2022-10-16T03:00:36;100475.38;;;9.51;100.00
59443;BME280;45247;47.466;19.004;2022-10-16T03:03:05;100485.41;;;9.43;100.00
59443;BME280;45247;47.466;19.004;2022-10-16T03:05:33;100478.63;;;9.38;100.00
59443;BME280;45247;47.466;19.004;2022-10-16T03:08:01;100480.69;;;9.31;100.00
59443;BME280;45247;47.466;19.004;2022-10-16T03:10:29;100474.78;;;9.26;100.00
59443;BME280;45247;47.466;19.004;2022-10-16T03:12:57;100475.50;;;9.30;100.00
59443;BME280;45247;47.466;19.004;2022-10-16T03:15:25;100479.22;;;9.25;100.00
59443;BME280;45247;47.466;19.004;2022-10-16T03:17:57;100482.81;;;9.23;100.00
59443;BME280;45247;47.466;19.004;2022-10-16T03:20:25;100487.44;;;9.18;100.00
59443;BME280;45247;47.466;19.004;2022-10-16T03:22:53;100485.06;;;9.12;100.00
59443;BME280;45247;47.466;19.004;2022-10-16T03:25:21;100493.25;;;9.06;100.00
59443;BME280;45247;47.466;19.004;2022-10-16T03:27:49;100493.38;;;9.02;100.00
59443;BME280;45247;47.466;19.004;2022-10-16T03:30:17;100498.72;;;9.01;100.00
59443;BME280;45247;47.466;19.004;2022-10-16T03:32:45;100495.47;;;8.94;100.00
59443;BME280;45247;47.466;19.004;2022-10-16T03:35:14;100498.31;;;8.90;100.00
59443;BME280;45247;47.466;19.004;2022-10-16T03:37:42;100513.53;;;8.83;100.00
59443;BME280;45247;47.466;19.004;2022-10-16T03:40:11;100512.94;;;8.76;100.00
59443;BME280;45247;47.466;19.004;2022-10-16T03:42:39;100511.94;;;8.79;100.00
59443;BME280;45247;47.466;19.004;2022-10-16T03:45:07;100517.34;;;8.76;100.00
59443;BME280;45247;47.466;19.004;2022-10-16T03:47:36;100514.72;;;8.76;100.00
59443;BME280;45247;47.466;19.004;2022-10-16T03:50:05;100519.03;;;8.77;100.00
59443;BME280;45247;47.466;19.004;2022-10-16T03:52:34;100518.47;;;8.70;100.00
59443;BME280;45247;47.466;19.004;2022-10-16T03:55:02;100517.81;;;8.65;100.00
59443;BME280;45247;47.466;19.004;2022-10-16T03:57:30;100520.75;;;8.58;100.00
59443;BME280;45247;47.466;19.004;2022-10-16T03:59:58;100518.31;;;8.53;100.00
59443;BME280;45247;47.466;19.004;2022-10-16T04:02:26;100516.53;;;8.53;100.00
59443;BME280;45247;47.466;19.004;2022-10-16T04:04:54;100528.88;;;8.51;100.00
59443;BME280;45247;47.466;19.004;2022-10-16T04:07:22;100525.47;;;8.49;100.00
59443;BME280;45247;47.466;19.004;2022-10-16T04:09:52;100529.72;;;8.52;100.00
59443;BME280;45247;47.466;19.004;2022-10-16T04:12:20;100534.28;;;8.48;100.00
59443;BME280;45247;47.466;19.004;2022-10-16T04:14:48;100531.56;;;8.50;100.00
59443;BME280;45247;47.466;19.004;2022-10-16T04:17:16;100531.50;;;8.51;100.00
59443;BME280;45247;47.466;19.004;2022-10-16T04:19:44;100528.88;;;8.51;100.00
59443;BME280;45247;47.466;19.004;2022-10-16T04:22:12;100537.97;;;8.44;100.00
59443;BME280;45247;47.466;19.004;2022-10-16T04:24:40;100527.44;;;8.44;100.00
59443;BME280;45247;47.466;19.004;2022-10-16T04:27:10;100528.16;;;8.48;100.00
59443;BME280;45247;47.466;19.004;2022-10-16T04:29:38;100527.28;;;8.47;100.00
59443;BME280;45247;47.466;19.004;2022-10-16T04:32:07;100525.69;;;8.43;100.00
59443;BME280;45247;47.466;19.004;2022-10-16T04:34:36;100523.25;;;8.39;100.00
59443;BME280;45247;47.466;19.004;2022-10-16T04:37:05;100526.91;;;8.35;100.00
59443;BME280;45247;47.466;19.004;2022-10-16T04:39:33;100528.53;;;8.39;100.00
59443;BME280;45247;47.466;19.004;2022-10-16T04:42:02;100535.78;;;8.32;100.00
59443;BME280;45247;47.466;19.004;2022-10-16T04:44:31;100539.75;;;8.20;100.00
59443;BME280;45247;47.466;19.004;2022-10-16T04:46:59;100538.22;;;8.15;100.00
59443;BME280;45247;47.466;19.004;2022-10-16T04:49:27;100546.13;;;8.15;100.00
59443;BME280;45247;47.466;19.004;2022-10-16T04:51:55;100541.78;;;8.14;100.00
59443;BME280;45247;47.466;19.004;2022-10-16T04:54:23;100547.19;;;8.09;100.00
59443;BME280;45247;47.466;19.004;2022-10-16T04:56:51;100551.13;;;8.21;100.00
59443;BME280;45247;47.466;19.004;2022-10-16T04:59:19;100557.41;;;8.17;100.00
59443;BME280;45247;47.466;19.004;2022-10-16T05:01:50;100556.75;;;8.12;100.00
59443;BME280;45247;47.466;19.004;2022-10-16T05:04:18;100560.41;;;8.08;100.00
59443;BME280;45247;47.466;19.004;2022-10-16T05:06:47;100555.41;;;8.01;100.00
59443;BME280;45247;47.466;19.004;2022-10-16T05:09:15;100551.97;;;7.99;100.00
59443;BME280;45247;47.466;19.004;2022-10-16T05:11:43;100555.50;;;7.98;100.00
59443;BME280;45247;47.466;19.004;2022-10-16T05:14:11;100552.53;;;8.08;100.00
59443;BME280;45247;47.466;19.004;2022-10-16T05:16:39;100557.78;;;8.08;100.00
59443;BME280;45247;47.466;19.004;2022-10-16T05:19:08;100554.13;;;8.12;100.00
59443;BME280;45247;47.466;19.004;2022-10-16T05:21:54;100571.38;;;8.19;100.00
59443;BME280;45247;47.466;19.004;2022-10-16T05:24:22;100570.56;;;8.17;100.00
59443;BME280;45247;47.466;19.004;2022-10-16T05:26:50;100571.19;;;8.23;100.00
59443;BME280;45247;47.466;19.004;2022-10-16T05:29:19;100568.50;;;8.25;100.00
59443;BME280;45247;47.466;19.004;2022-10-16T05:31:50;100583.97;;;8.33;100.00
59443;BME280;45247;47.466;19.004;2022-10-16T05:34:19;100577.53;;;8.41;100.00
59443;BME280;45247;47.466;19.004;2022-10-16T05:36:47;100579.78;;;8.50;100.00
59443;BME280;45247;47.466;19.004;2022-10-16T05:39:16;100578.56;;;8.59;100.00
59443;BME280;45247;47.466;19.004;2022-10-16T05:41:44;100576.47;;;8.67;100.00
59443;BME280;45247;47.466;19.004;2022-10-16T05:44:12;100573.47;;;8.76;100.00
59443;BME280;45247;47.466;19.004;2022-10-16T05:46:40;100579.25;;;8.85;100.00
59443;BME280;45247;47.466;19.004;2022-10-16T05:49:08;100576.03;;;8.98;100.00
59443;BME280;45247;47.466;19.004;2022-10-16T05:51:37;100578.81;;;9.16;100.00
59443;BME280;45247;47.466;19.004;2022-10-16T05:54:05;100585.13;;;9.32;100.00
59443;BME280;45247;47.466;19.004;2022-10-16T05:56:33;100591.16;;;9.54;100.00
59443;BME280;45247;47.466;19.004;2022-10-16T05:59:03;100591.22;;;9.73;100.00
59443;BME280;45247;47.466;19.004;2022-10-16T06:01:31;100591.44;;;9.88;100.00
59443;BME280;45247;47.466;19.004;2022-10-16T06:04:00;100595.00;;;10.06;100.00
59443;BME280;45247;47.466;19.004;2022-10-16T06:06:28;100590.09;;;10.17;100.00
59443;BME280;45247;47.466;19.004;2022-10-16T06:08:58;100599.81;;;10.35;100.00
59443;BME280;45247;47.466;19.004;2022-10-16T06:11:29;100612.19;;;10.52;100.00
59443;BME280;45247;47.466;19.004;2022-10-16T06:13:59;100605.47;;;10.64;100.00
59443;BME280;45247;47.466;19.004;2022-10-16T06:16:29;100612.72;;;10.77;100.00
59443;BME280;45247;47.466;19.004;2022-10-16T06:18:57;100609.63;;;10.87;100.00
59443;BME280;45247;47.466;19.004;2022-10-16T06:21:27;100611.66;;;10.99;100.00
59443;BME280;45247;47.466;19.004;2022-10-16T06:23:56;100624.47;;;11.07;100.00
59443;BME280;45247;47.466;19.004;2022-10-16T06:26:27;100620.13;;;11.23;100.00
59443;BME280;45247;47.466;19.004;2022-10-16T06:28:56;100625.25;;;11.26;100.00
59443;BME280;45247;47.466;19.004;2022-10-16T06:31:26;100635.50;;;11.32;100.00
59443;BME280;45247;47.466;19.004;2022-10-16T06:33:57;100633.84;;;11.47;100.00
59443;BME280;45247;47.466;19.004;2022-10-16T06:36:25;100634.41;;;11.53;100.00
59443;BME280;45247;47.466;19.004;2022-10-16T06:38:54;100639.91;;;11.66;100.00
59443;BME280;45247;47.466;19.004;2022-10-16T06:41:22;100648.22;;;11.76;100.00
59443;BME280;45247;47.466;19.004;2022-10-16T06:43:52;100650.56;;;11.82;100.00
59443;BME280;45247;47.466;19.004;2022-10-16T06:46:21;100639.41;;;11.93;100.00
59443;BME280;45247;47.466;19.004;2022-10-16T06:48:50;100643.44;;;12.00;100.00
59443;BME280;45247;47.466;19.004;2022-10-16T06:51:19;100651.28;;;12.01;100.00
59443;BME280;45247;47.466;19.004;2022-10-16T06:53:49;100647.41;;;12.09;100.00
59443;BME280;45247;47.466;19.004;2022-10-16T06:56:29;100655.09;;;12.13;100.00
59443;BME280;45247;47.466;19.004;2022-10-16T06:59:00;100658.88;;;12.25;100.00
59443;BME280;45247;47.466;19.004;2022-10-16T07:01:28;100657.75;;;12.29;100.00
59443;BME280;45247;47.466;19.004;2022-10-16T07:03:56;100660.22;;;12.32;100.00
59443;BME280;45247;47.466;19.004;2022-10-16T07:06:25;100665.34;;;12.35;100.00
59443;BME280;45247;47.466;19.004;2022-10-16T07:08:54;100662.34;;;12.41;100.00
59443;BME280;45247;47.466;19.004;2022-10-16T07:11:23;100665.44;;;12.49;100.00
59443;BME280;45247;47.466;19.004;2022-10-16T07:13:52;100666.91;;;12.55;100.00
59443;BME280;45247;47.466;19.004;2022-10-16T07:16:24;100673.38;;;12.65;100.00
59443;BME280;45247;47.466;19.004;2022-10-16T07:18:53;100680.91;;;12.73;100.00
59443;BME280;45247;47.466;19.004;2022-10-16T07:21:27;100679.00;;;12.75;100.00
59443;BME280;45247;47.466;19.004;2022-10-16T07:23:56;100683.78;;;12.84;100.00
59443;BME280;45247;47.466;19.004;2022-10-16T07:26:26;100688.75;;;12.90;100.00
59443;BME280;45247;47.466;19.004;2022-10-16T07:28:54;100690.47;;;12.91;100.00
59443;BME280;45247;47.466;19.004;2022-10-16T07:31:25;100694.53;;;12.97;100.00
59443;BME280;45247;47.466;19.004;2022-10-16T07:33:53;100687.84;;;13.06;100.00
59443;BME280;45247;47.466;19.004;2022-10-16T07:36:21;100682.41;;;13.09;100.00
59443;BME280;45247;47.466;19.004;2022-10-16T07:38:49;100690.94;;;13.14;100.00
59443;BME280;45247;47.466;19.004;2022-10-16T07:41:22;100688.78;;;13.20;100.00
59443;BME280;45247;47.466;19.004;2022-10-16T07:43:52;100692.38;;;13.35;100.00
59443;BME280;45247;47.466;19.004;2022-10-16T07:46:22;100685.94;;;13.39;100.00
59443;BME280;45247;47.466;19.004;2022-10-16T07:48:51;100686.91;;;13.52;100.00
59443;BME280;45247;47.466;19.004;2022-10-16T07:51:21;100691.19;;;13.55;100.00
59443;BME280;45247;47.466;19.004;2022-10-16T07:53:50;100693.81;;;13.41;100.00
59443;BME280;45247;47.466;19.004;2022-10-16T07:56:19;100705.41;;;13.54;100.00
59443;BME280;45247;47.466;19.004;2022-10-16T07:58:48;100718.03;;;13.65;100.00
59443;BME280;45247;47.466;19.004;2022-10-16T08:01:17;100717.69;;;13.71;100.00
59443;BME280;45247;47.466;19.004;2022-10-16T08:03:47;100716.25;;;13.80;100.00
59443;BME280;45247;47.466;19.004;2022-10-16T08:06:17;100721.56;;;13.80;100.00
59443;BME280;45247;47.466;19.004;2022-10-16T08:08:52;100717.78;;;13.84;100.00
59443;BME280;45247;47.466;19.004;2022-10-16T08:11:20;100716.72;;;13.86;100.00
59443;BME280;45247;47.466;19.004;2022-10-16T08:13:48;100724.69;;;13.86;100.00
59443;BME280;45247;47.466;19.004;2022-10-16T08:16:16;100722.19;;;13.69;100.00
59443;BME280;45247;47.466;19.004;2022-10-16T08:18:44;100721.91;;;13.73;100.00
59443;BME280;45247;47.466;19.004;2022-10-16T08:21:14;100731.63;;;13.89;100.00
59443;BME280;45247;47.466;19.004;2022-10-16T08:23:48;100730.22;;;13.97;100.00
59443;BME280;45247;47.466;19.004;2022-10-16T08:26:24;100744.91;;;14.03;100.00
59443;BME280;45247;47.466;19.004;2022-10-16T08:28:52;100752.41;;;14.11;100.00
59443;BME280;45247;47.466;19.004;2022-10-16T08:31:21;100740.56;;;14.16;100.00
59443;BME280;45247;47.466;19.004;2022-10-16T08:33:49;100743.31;;;14.15;100.00
59443;BME280;45247;47.466;19.004;2022-10-16T08:36:17;100744.84;;;14.19;100.00
59443;BME280;45247;47.466;19.004;2022-10-16T08:38:49;100754.09;;;14.26;100.00
59443;BME280;45247;47.466;19.004;2022-10-16T08:41:36;100755.28;;;14.36;100.00
59443;BME280;45247;47.466;19.004;2022-10-16T08:44:30;100757.44;;;14.29;100.00
59443;BME280;45247;47.466;19.004;2022-10-16T08:47:08;100748.81;;;14.40;100.00
59443;BME280;45247;47.466;19.004;2022-10-16T08:49:41;100742.94;;;14.21;100.00
59443;BME280;45247;47.466;19.004;2022-10-16T08:52:11;100747.75;;;14.43;100.00
59443;BME280;45247;47.466;19.004;2022-10-16T08:54:44;100744.59;;;14.52;100.00
59443;BME280;45247;47.466;19.004;2022-10-16T08:57:17;100753.38;;;14.67;100.00
59443;BME280;45247;47.466;19.004;2022-10-16T08:59:50;100762.94;;;14.84;100.00
59443;BME280;45247;47.466;19.004;2022-10-16T09:02:24;100763.78;;;14.84;100.00
59443;BME280;45247;47.466;19.004;2022-10-16T09:05:15;100763.75;;;14.98;100.00
59443;BME280;45247;47.466;19.004;2022-10-16T09:07:54;100761.50;;;14.92;100.00
59443;BME280;45247;47.466;19.004;2022-10-16T09:10:39;100766.53;;;14.97;100.00
59443;BME280;45247;47.466;19.004;2022-10-16T09:13:18;100767.72;;;15.06;100.00
59443;BME280;45247;47.466;19.004;2022-10-16T09:15:54;100771.09;;;15.22;100.00
59443;BME280;45247;47.466;19.004;2022-10-16T09:18:26;100765.28;;;15.30;100.00
59443;BME280;45247;47.466;19.004;2022-10-16T09:21:01;100765.72;;;15.36;100.00
59443;BME280;45247;47.466;19.004;2022-10-16T09:23:36;100772.78;;;15.50;100.00
59443;BME280;45247;47.466;19.004;2022-10-16T09:28:38;100769.63;;;15.58;100.00
59443;BME280;45247;47.466;19.004;2022-10-16T09:31:13;100754.94;;;15.52;100.00
59443;BME280;45247;47.466;19.004;2022-10-16T09:33:45;100761.88;;;15.55;100.00
59443;BME280;45247;47.466;19.004;2022-10-16T09:36:14;100758.97;;;15.58;100.00
59443;BME280;45247;47.466;19.004;2022-10-16T09:38:43;100764.69;;;15.66;100.00
59443;BME280;45247;47.466;19.004;2022-10-16T09:41:17;100768.22;;;15.79;100.00
59443;BME280;45247;47.466;19.004;2022-10-16T09:43:49;100762.91;;;15.79;100.00
59443;BME280;45247;47.466;19.004;2022-10-16T09:46:24;100766.53;;;15.78;100.00
59443;BME280;45247;47.466;19.004;2022-10-16T09:48:54;100760.16;;;15.81;100.00
59443;BME280;45247;47.466;19.004;2022-10-16T09:51:25;100772.41;;;15.96;100.00
59443;BME280;45247;47.466;19.004;2022-10-16T09:53:57;100769.22;;;16.16;100.00
59443;BME280;45247;47.466;19.004;2022-10-16T09:56:28;100765.81;;;16.27;100.00
59443;BME280;45247;47.466;19.004;2022-10-16T09:58:58;100774.22;;;16.46;100.00
59443;BME280;45247;47.466;19.004;2022-10-16T10:01:30;100774.94;;;16.48;100.00
59443;BME280;45247;47.466;19.004;2022-10-16T10:03:59;100774.94;;;16.61;100.00
59443;BME280;45247;47.466;19.004;2022-10-16T10:06:31;100776.97;;;16.70;100.00
59443;BME280;45247;47.466;19.004;2022-10-16T10:09:04;100766.97;;;16.74;100.00
59443;BME280;45247;47.466;19.004;2022-10-16T10:11:38;100767.03;;;16.85;100.00
59443;BME280;45247;47.466;19.004;2022-10-16T10:14:17;100762.31;;;17.01;100.00
59443;BME280;45247;47.466;19.004;2022-10-16T10:16:46;100753.16;;;17.17;100.00
59443;BME280;45247;47.466;19.004;2022-10-16T10:19:15;100755.91;;;17.28;100.00
59443;BME280;45247;47.466;19.004;2022-10-16T10:21:44;100758.25;;;17.09;100.00
59443;BME280;45247;47.466;19.004;2022-10-16T10:24:13;100747.78;;;17.06;100.00
59443;BME280;45247;47.466;19.004;2022-10-16T10:26:48;100745.28;;;17.15;100.00
59443;BME280;45247;47.466;19.004;2022-10-16T10:29:28;100750.00;;;17.12;100.00
59443;BME280;45247;47.466;19.004;2022-10-16T10:32:08;100752.69;;;17.36;100.00
59443;BME280;45247;47.466;19.004;2022-10-16T10:34:50;100750.63;;;17.39;100.00
59443;BME280;45247;47.466;19.004;2022-10-16T10:37:37;100748.47;;;17.44;100.00
59443;BME280;45247;47.466;19.004;2022-10-16T10:40:18;100745.97;;;17.54;100.00
59443;BME280;45247;47.466;19.004;2022-10-16T10:42:57;100737.38;;;17.62;100.00
59443;BME280;45247;47.466;19.004;2022-10-16T10:45:38;100741.53;;;17.66;100.00
59443;BME280;45247;47.466;19.004;2022-10-16T10:48:19;100741.53;;;17.66;100.00
59443;BME280;45247;47.466;19.004;2022-10-16T10:50:52;100744.22;;;17.77;100.00
59443;BME280;45247;47.466;19.004;2022-10-16T10:53:30;100744.69;;;17.71;100.00
59443;BME280;45247;47.466;19.004;2022-10-16T10:56:08;100743.00;;;17.70;100.00
59443;BME280;45247;47.466;19.004;2022-10-16T10:59:08;100740.41;;;17.92;100.00
59443;BME280;45247;47.466;19.004;2022-10-16T11:01:48;100743.38;;;18.12;100.00
59443;BME280;45247;47.466;19.004;2022-10-16T11:04:34;100742.38;;;18.13;100.00
59443;BME280;45247;47.466;19.004;2022-10-16T11:07:15;100742.63;;;18.21;100.00
59443;BME280;45247;47.466;19.004;2022-10-16T11:09:47;100740.06;;;18.08;100.00
59443;BME280;45247;47.466;19.004;2022-10-16T11:12:19;100741.16;;;18.28;100.00
59443;BME280;45247;47.466;19.004;2022-10-16T11:14:54;100740.47;;;18.26;100.00
59443;BME280;45247;47.466;19.004;2022-10-16T11:17:27;100736.91;;;18.37;100.00
59443;BME280;45247;47.466;19.004;2022-10-16T11:20:02;100722.25;;;18.42;100.00
59443;BME280;45247;47.466;19.004;2022-10-16T11:22:35;100732.81;;;18.55;100.00
59443;BME280;45247;47.466;19.004;2022-10-16T11:25:13;100733.06;;;18.63;100.00
59443;BME280;45247;47.466;19.004;2022-10-16T11:27:43;100726.97;;;18.61;100.00
59443;BME280;45247;47.466;19.004;2022-10-16T11:30:18;100725.16;;;18.50;100.00
59443;BME280;45247;47.466;19.004;2022-10-16T11:33:05;100722.47;;;18.62;100.00
59443;BME280;45247;47.466;19.004;2022-10-16T11:35:42;100715.69;;;18.35;100.00
59443;BME280;45247;47.466;19.004;2022-10-16T11:38:15;100723.19;;;18.52;100.00
59443;BME280;45247;47.466;19.004;2022-10-16T11:40:50;100715.44;;;18.61;100.00
59443;BME280;45247;47.466;19.004;2022-10-16T11:43:22;100722.97;;;18.78;100.00
59443;BME280;45247;47.466;19.004;2022-10-16T11:45:55;100715.16;;;18.86;100.00
59443;BME280;45247;47.466;19.004;2022-10-16T11:48:28;100717.69;;;18.99;100.00
59443;BME280;45247;47.466;19.004;2022-10-16T11:51:05;100721.81;;;19.03;100.00
59443;BME280;45247;47.466;19.004;2022-10-16T11:53:44;100724.28;;;18.95;100.00
59443;BME280;45247;47.466;19.004;2022-10-16T11:56:15;100717.44;;;19.02;100.00
59443;BME280;45247;47.466;19.004;2022-10-16T11:58:53;100713.41;;;19.08;100.00
59443;BME280;45247;47.466;19.004;2022-10-16T12:01:30;100716.44;;;19.14;99.15
59443;BME280;45247;47.466;19.004;2022-10-16T12:04:06;100717.00;;;19.29;100.00
59443;BME280;45247;47.466;19.004;2022-10-16T12:06:43;100708.19;;;19.38;99.97
59443;BME280;45247;47.466;19.004;2022-10-16T12:09:25;100715.72;;;19.44;100.00
59443;BME280;45247;47.466;19.004;2022-10-16T12:11:54;100712.75;;;19.47;98.72
59443;BME280;45247;47.466;19.004;2022-10-16T12:14:38;100706.19;;;19.51;97.64
59443;BME280;45247;47.466;19.004;2022-10-16T12:17:35;100699.81;;;19.64;98.22
59443;BME280;45247;47.466;19.004;2022-10-16T12:20:20;100700.91;;;19.61;95.35
59443;BME280;45247;47.466;19.004;2022-10-16T12:22:51;100694.75;;;19.49;95.43
59443;BME280;45247;47.466;19.004;2022-10-16T12:25:23;100699.72;;;19.54;93.64
59443;BME280;45247;47.466;19.004;2022-10-16T12:27:57;100694.88;;;19.48;95.27
59443;BME280;45247;47.466;19.004;2022-10-16T12:30:27;100693.16;;;19.26;92.64
59443;BME280;45247;47.466;19.004;2022-10-16T12:33:04;100690.94;;;19.31;94.04
59443;BME280;45247;47.466;19.004;2022-10-16T12:35:34;100692.88;;;19.40;91.55
59443;BME280;45247;47.466;19.004;2022-10-16T12:38:15;100694.16;;;19.46;94.38
59443;BME280;45247;47.466;19.004;2022-10-16T12:40:45;100692.88;;;19.40;91.01
59443;BME280;45247;47.466;19.004;2022-10-16T12:43:36;100687.22;;;19.43;92.34
59443;BME280;45247;47.466;19.004;2022-10-16T12:46:20;100699.97;;;19.51;93.79
59443;BME280;45247;47.466;19.004;2022-10-16T12:48:50;100697.94;;;19.43;89.96
59443;BME280;45247;47.466;19.004;2022-10-16T12:51:35;100697.94;;;19.43;91.29
59443;BME280;45247;47.466;19.004;2022-10-16T12:54:10;100697.16;;;19.52;93.04
59443;BME280;45247;47.466;19.004;2022-10-16T12:56:50;100695.72;;;19.48;88.83
59443;BME280;45247;47.466;19.004;2022-10-16T12:59:29;100692.94;;;19.50;88.53